Latest Weather Observations for Sydney Airport

IDN60801

Issued at 9:42 pm EDT Thursday 13 December 2018 (issued every 10 minutes, with the page automatically refreshed every 10 minutes)

About weather observations | Map of weather stations | Latest weather observations for NSW | Other Formats
Station Details ID: 066037 Name: SYDNEY AIRPORT AMO Lat: -33.95 Lon: 151.17 Height: 6.0 m
Data from the previous 72 hours. | See also: Recent months at Sydney Airport
Date/Time
EDT
Temp
°C
App
Temp
°C
Dew
Point
°C
Rel
Hum
%
Delta-T
°C
Wind Press
QNH
hPa
Press
MSL
hPa
Rain since
9am
mm
Dir  Spd
km/h
Gust
km/h
Spd
kts
Gust
kts
13/09:30pm 20.4 20.6 19.4 94 0.6 S 17 19 9 10 1000.3 1000.3 -
13/09:00pm 18.9 17.2 18.1 95 0.5 SW 24 32 13 17 1001.0 1001.0 23.0
13/08:30pm 19.2 17.2 18.4 95 0.5 SW 26 30 14 16 1001.3 1001.3 -
13/08:22pm 19.3 16.2 18.3 94 0.6 WSW 32 41 17 22 1001.5 1001.5 -
13/08:08pm 19.2 11.8 18.0 93 0.7 W 54 76 29 41 1001.7 1001.7 -
13/08:00pm 19.8 14.4 17.0 84 1.7 W 41 83 22 45 1001.9 1001.9 -
13/07:50pm 24.2 22.9 19.9 77 2.8 N 26 35 14 19 1000.1 1000.1 -
13/07:30pm 24.3 21.4 20.0 77 2.8 NE 35 48 19 26 997.9 997.9 -
13/07:00pm 23.8 21.8 19.9 79 2.5 NE 30 44 16 24 997.4 997.4 -
13/06:30pm 24.8 22.2 19.6 73 3.3 NE 32 41 17 22 998.1 998.1 -
13/06:00pm 25.9 24.0 19.3 67 4.3 NE 28 35 15 19 998.1 998.1 -
13/05:30pm 26.3 22.5 18.9 63 4.7 NE 37 46 20 25 997.6 997.6 -
13/05:19pm 26.9 23.3 18.5 60 5.4 NE 35 54 19 29 997.7 997.7 0.0
13/05:00pm 27.4 24.9 18.9 59 5.5 NE 30 41 16 22 997.8 997.8 0.0
13/04:30pm 25.9 23.0 19.3 67 4.2 NE 33 41 18 22 998.1 998.1 -
13/04:00pm 25.9 22.8 18.3 63 4.8 NE 32 37 17 20 998.8 998.8 0.0
13/03:30pm 27.0 23.1 18.8 60 5.3 NE 37 48 20 26 999.3 999.3 -
13/03:00pm 27.8 23.6 18.8 58 5.8 NE 39 50 21 27 999.5 999.5 0.0
13/02:30pm 27.6 23.9 18.3 57 5.9 NE 35 46 19 25 1000.5 1000.5 0.0
13/02:00pm 27.7 24.3 19.0 59 5.6 NE 35 43 19 23 1000.7 1000.7 -
13/01:30pm 27.3 24.0 18.0 56 5.9 NE 32 39 17 21 1000.6 1000.6 0.0
13/01:00pm 25.8 21.6 18.0 62 4.9 NE 37 48 20 26 1001.7 1001.7 -
13/12:30pm 26.0 22.8 18.7 64 4.7 NE 33 43 18 23 1002.3 1002.3 -
13/12:00pm 24.8 22.6 18.7 69 3.9 NNE 28 33 15 18 1002.5 1002.5 -
13/11:30am 25.0 23.0 19.1 70 3.8 NNE 28 32 15 17 1002.3 1002.3 -
13/11:06am 25.2 23.0 19.6 71 3.6 NE 30 35 16 19 1002.4 1002.4 0.0
13/11:00am 24.8 - - - - NNE 30 44 16 24 1002.0 - -
13/10:30am 26.4 25.2 18.5 62 5.0 NNE 22 30 12 16 1002.9 1002.9 0.0
13/10:00am 26.0 25.9 18.7 64 4.7 N 17 24 9 13 1003.5 1003.5 0.0
13/09:30am 24.9 24.7 18.4 67 4.1 NNW 17 26 9 14 1004.1 1004.1 0.0
13/09:00am 24.3 23.2 18.7 71 3.6 NNE 22 28 12 15 1004.0 1004.0 0.4
13/08:30am 24.0 22.8 18.4 71 3.5 NNE 22 28 12 15 1004.3 1004.3 -
13/08:00am 23.4 22.9 19.1 77 2.7 NE 20 26 11 14 1004.5 1004.5 0.4
13/07:30am 23.0 22.8 19.4 80 2.3 N 19 24 10 13 1004.8 1004.8 0.4
13/07:00am 22.5 23.6 19.7 84 1.8 N 13 17 7 9 1004.7 1004.7 0.4
13/06:30am 21.9 22.4 19.3 85 1.7 NNE 15 19 8 10 1004.2 1004.2 -
13/06:00am 21.4 19.6 19.5 89 1.2 NNE 28 35 15 19 1004.0 1004.0 0.2
13/05:30am 21.2 21.6 19.8 92 0.9 NE 17 24 9 13 1003.9 1003.9 0.2
13/05:00am 20.6 21.1 19.3 92 0.8 NE 15 19 8 10 1004.5 1004.5 0.2
13/04:30am 20.9 21.6 18.8 88 1.3 NE 13 15 7 8 1005.5 1005.5 0.2
13/04:00am 21.3 21.9 19.4 89 1.2 N 15 19 8 10 1006.6 1006.6 -
13/03:30am 21.5 22.5 19.4 88 1.3 N 13 19 7 10 1006.7 1006.7 -
13/03:19am 21.5 22.0 19.2 87 1.5 N 15 19 8 10 1007.2 1007.2 -
13/03:00am 21.7 21.5 19.4 87 1.5 NNE 19 26 10 14 1007.1 1007.1 0.1
13/02:57am 21.5 21.2 19.1 86 1.5 NNE 19 24 10 13 1007.1 1007.1 -
13/02:30am 21.7 22.1 19.1 85 1.6 NNE 15 20 8 11 1007.4 1007.4 0.0
13/02:00am 22.0 22.3 19.5 86 1.6 NE 17 24 9 13 1007.5 1007.5 0.0
13/01:30am 21.6 21.7 19.2 86 1.5 NNE 17 20 9 11 1007.9 1007.9 0.0
13/01:00am 21.5 21.0 19.2 87 1.5 NNE 20 30 11 16 1008.1 1008.1 0.0
13/12:30am 22.0 21.5 19.0 83 1.9 NE 20 28 11 15 1008.8 1008.8 0.0
13/12:00am 22.3 21.1 19.3 83 1.9 NNE 24 32 13 17 1009.3 1009.3 0.0
 
Date/Time
EDT
Temp
°C
App
Temp
°C
Dew
Point
°C
Rel
Hum
%
Delta-T
°C
Wind Press
QNH
hPa
Press
MSL
hPa
Rain since
9am
mm
Dir  Spd
km/h
Gust
km/h
Spd
kts
Gust
kts
12/11:36pm 22.0 20.1 18.6 81 2.1 NE 26 33 14 18 1009.7 1009.7 0.0
12/11:30pm 22.1 20.3 18.7 81 2.1 NE 26 33 14 18 1009.6 1009.6 0.0
12/11:00pm 22.5 21.2 19.1 81 2.2 NE 24 32 13 17 1010.0 1010.0 0.0
12/10:30pm 22.0 20.2 18.8 82 2.0 NE 26 32 14 17 1010.4 1010.4 0.0
12/10:00pm 22.2 19.2 17.8 76 2.7 NE 30 39 16 21 1010.5 1010.5 0.0
12/09:30pm 22.1 19.0 17.5 75 2.8 NE 30 39 16 21 1010.4 1010.4 0.0
12/09:00pm 22.2 19.3 17.1 73 3.1 NE 28 37 15 20 1010.2 1010.2 0.0
12/08:30pm 22.6 20.7 17.7 74 3.0 NE 24 30 13 16 1010.5 1010.5 0.0
12/08:00pm 22.6 20.6 17.5 73 3.2 NE 24 30 13 16 1010.7 1010.7 0.0
12/07:30pm 22.2 20.2 17.3 74 3.0 NE 24 30 13 16 1011.0 1011.0 0.0
12/07:00pm 22.7 21.2 17.6 73 3.2 NNE 22 30 12 16 1011.2 1011.2 0.0
12/06:30pm 22.5 21.3 17.0 71 3.4 NE 19 24 10 13 1011.3 1011.3 0.0
12/06:00pm 22.7 19.9 17.4 72 3.3 NNE 28 35 15 19 1011.1 1011.1 0.0
12/05:30pm 23.3 20.0 17.1 68 3.8 NNE 30 37 16 20 1011.3 1011.3 0.0
12/05:00pm 23.3 20.0 17.1 68 3.8 NE 30 37 16 20 1011.5 1011.5 0.0
12/04:30pm 22.4 19.5 17.1 72 3.3 NE 28 37 15 20 1011.8 1011.8 0.0
12/04:00pm 22.9 19.8 17.6 72 3.3 NE 30 37 16 20 1012.3 1012.3 0.0
12/03:30pm 24.4 20.9 17.4 65 4.4 NE 32 39 17 21 1012.7 1012.7 0.0
12/03:00pm 23.4 19.9 15.5 61 4.7 NE 28 37 15 20 1012.9 1012.9 0.0
12/02:30pm 23.3 20.4 16.1 64 4.4 ENE 26 32 14 17 1013.5 1013.5 0.0
12/02:00pm 22.8 20.3 16.1 66 4.1 ENE 24 30 13 16 1013.8 1013.8 0.0
12/01:30pm 23.1 20.7 16.4 66 4.1 NE 24 33 13 18 1014.0 1014.0 0.0
12/01:00pm 23.6 20.5 15.6 61 4.8 NE 26 35 14 19 1014.1 1014.1 0.0
12/12:30pm 23.4 20.8 14.9 59 5.1 ENE 22 33 12 18 1014.8 1014.8 0.0
12/12:00pm 23.2 21.2 15.5 62 4.6 NE 20 30 11 16 1015.4 1015.4 0.0
12/11:30am 23.1 21.7 16.9 68 3.8 NE 20 28 11 15 1015.7 1015.7 0.0
12/11:00am 22.1 20.2 16.6 71 3.3 NE 22 30 12 16 1015.7 1015.7 0.0
12/10:30am 21.1 19.8 17.3 79 2.3 ENE 20 26 11 14 1016.0 1016.0 0.0
12/10:00am 20.4 18.1 17.6 84 1.7 ENE 26 37 14 20 1016.1 1016.1 0.0
12/09:56am 20.7 19.6 17.3 81 2.1 E 19 32 10 17 1016.1 1016.1 0.0
12/09:30am 21.7 21.2 17.7 78 2.5 E 17 28 9 15 1016.2 1016.2 0.0
12/09:00am 21.8 20.6 17.0 74 2.9 E 19 26 10 14 1016.6 1016.6 0.0
12/08:30am 21.6 21.4 16.8 74 2.9 ESE 13 19 7 10 1016.6 1016.6 0.0
12/08:00am 21.2 21.0 16.8 76 2.7 ESE 13 17 7 9 1016.6 1016.6 0.0
12/07:30am 20.6 21.5 17.6 83 1.8 SSE 9 11 5 6 1016.4 1016.4 0.0
12/07:00am 20.4 21.5 17.0 81 2.1 S 7 9 4 5 1016.2 1016.2 0.0
12/06:30am 20.0 20.8 17.4 85 1.6 S 9 11 5 6 1016.0 1016.0 0.0
12/06:00am 19.7 20.1 17.3 86 1.5 S 11 11 6 6 1016.0 1016.0 0.0
12/05:30am 19.6 20.0 17.2 86 1.5 SSE 11 13 6 7 1015.8 1015.8 0.0
12/05:00am 19.4 19.6 16.8 85 1.6 S 11 13 6 7 1015.6 1015.6 0.0
12/04:30am 20.0 20.0 17.2 84 1.7 SSW 13 15 7 8 1015.7 1015.7 0.0
12/04:00am 19.5 19.6 16.5 83 1.8 S 11 13 6 7 1015.9 1015.9 0.0
12/03:30am 19.7 19.8 16.5 82 1.9 S 11 13 6 7 1016.1 1016.1 0.0
12/03:00am 19.9 19.6 16.5 81 2.0 S 13 13 7 7 1016.4 1016.4 0.0
12/02:30am 20.4 20.8 16.2 77 2.5 SSE 9 11 5 6 1016.5 1016.5 0.0
12/02:00am 20.4 20.7 16.0 76 2.6 ESE 9 11 5 6 1016.6 1016.6 0.0
12/01:30am 20.5 20.8 15.9 75 2.7 SE 9 11 5 6 1017.0 1017.0 0.0
12/01:00am 20.3 20.2 16.1 77 2.5 SE 11 13 6 7 1017.1 1017.1 0.0
12/12:30am 20.4 20.3 16.0 76 2.6 SE 11 13 6 7 1017.7 1017.7 0.0
12/12:00am 20.4 20.6 15.8 75 2.7 E 9 11 5 6 1017.8 1017.8 0.0
 
Date/Time
EDT
Temp
°C
App
Temp
°C
Dew
Point
°C
Rel
Hum
%
Delta-T
°C
Wind Press
QNH
hPa
Press
MSL
hPa
Rain since
9am
mm
Dir  Spd
km/h
Gust
km/h
Spd
kts
Gust
kts
11/11:30pm 20.7 20.6 15.9 74 2.9 ESE 11 11 6 6 1018.1 1018.1 0.0
11/11:00pm 20.7 20.9 15.7 73 3.0 E 9 11 5 6 1018.5 1018.5 0.0
11/10:30pm 20.7 20.1 15.7 73 3.0 E 13 15 7 8 1018.0 1018.0 0.0
11/10:00pm 20.7 20.1 15.7 73 3.0 ESE 13 17 7 9 1017.8 1017.8 0.0
11/09:30pm 20.4 19.9 16.0 76 2.6 SE 13 17 7 9 1017.8 1017.8 0.0
11/09:00pm 20.2 19.6 15.6 75 2.7 SSE 13 15 7 8 1018.3 1018.3 0.0
11/08:30pm 20.7 20.2 15.9 74 2.9 SSE 13 17 7 9 1018.2 1018.2 0.0
11/08:00pm 20.5 19.8 15.5 73 3.0 SE 13 15 7 8 1018.0 1018.0 0.0
11/07:30pm 21.0 20.9 16.0 73 3.0 SE 11 15 6 8 1017.8 1017.8 0.0
11/07:00pm 20.9 20.5 15.2 70 3.4 SE 11 13 6 7 1017.6 1017.6 0.0
11/06:30pm 21.4 20.6 15.0 67 3.8 SE 13 17 7 9 1017.4 1017.4 0.0
11/06:00pm 20.9 19.8 14.3 66 3.8 SSE 13 17 7 9 1017.5 1017.5 0.0
11/05:30pm 21.2 19.8 14.6 66 3.9 SE 15 19 8 10 1017.4 1017.4 0.0
11/05:00pm 21.1 20.3 15.2 69 3.5 SE 13 17 7 9 1017.6 1017.6 0.0
11/04:30pm 21.2 20.1 15.3 69 3.5 SE 15 19 8 10 1017.7 1017.7 0.0
11/04:00pm 21.2 20.1 15.3 69 3.5 SE 15 19 8 10 1018.1 1018.1 0.0
11/03:30pm 21.3 19.9 14.5 65 4.0 ESE 15 17 8 9 1018.1 1018.1 0.0
11/03:00pm 20.9 20.3 15.7 72 3.1 S 13 17 7 9 1018.5 1018.5 0.0
11/02:30pm 20.8 19.8 15.6 72 3.1 S 15 19 8 10 1018.8 1018.8 0.0
11/02:00pm 21.1 20.0 16.3 74 2.9 S 17 20 9 11 1018.7 1018.7 0.0
11/01:30pm 20.8 19.1 15.8 73 3.0 S 19 26 10 14 1019.1 1019.1 0.0
11/01:00pm 21.2 19.6 16.0 72 3.1 S 19 24 10 13 1019.3 1019.3 0.0
11/12:30pm 20.9 18.9 15.4 71 3.3 S 20 28 11 15 1019.3 1019.3 0.0
11/12:00pm 21.5 19.7 16.0 71 3.3 S 20 30 11 16 1019.4 1019.4 0.0
11/11:30am 21.4 19.2 15.0 67 3.8 S 20 24 11 13 1019.4 1019.4 0.0
11/11:00am 21.7 19.6 15.3 67 3.8 S 20 30 11 16 1019.4 1019.4 0.0
11/10:30am 21.9 20.1 15.5 67 3.8 S 19 26 10 14 1019.6 1019.6 0.0
11/10:00am 21.7 20.2 15.3 67 3.8 S 17 22 9 12 1019.7 1019.7 0.0
11/09:30am 21.7 20.0 15.8 69 3.5 S 19 24 10 13 1019.5 1019.5 0.0
11/09:00am 21.1 19.2 15.2 69 3.5 S 19 20 10 11 1019.5 1019.5 0.0
11/08:30am 20.8 19.3 15.4 71 3.2 SSE 17 22 9 12 1019.5 1019.5 0.0
11/08:00am 20.6 18.8 15.4 72 3.1 SSE 19 22 10 12 1019.1 1019.1 0.0
11/07:30am 20.4 19.1 15.8 75 2.7 S 17 22 9 12 1019.0 1019.0 0.0
11/07:00am 20.6 18.8 15.4 72 3.1 SSE 19 22 10 12 1018.5 1018.5 0.0
11/06:30am 20.4 19.0 15.6 74 2.9 S 17 20 9 11 1018.3 1018.3 0.0
11/06:00am 20.2 18.5 15.8 76 2.6 SSE 19 26 10 14 1018.0 1018.0 0.0
11/05:30am 20.2 18.3 15.2 73 2.9 SSE 19 26 10 14 1017.6 1017.6 0.0
11/05:00am 20.2 18.2 15.6 75 2.7 SSE 20 28 11 15 1017.6 1017.6 0.0
11/04:30am 20.6 18.2 16.4 77 2.5 SSE 24 30 13 16 1017.0 1017.0 0.0
11/04:00am 20.4 18.3 16.2 77 2.5 SSE 22 28 12 15 1017.2 1017.2 0.0
11/03:30am 20.6 19.8 17.0 80 2.2 S 17 24 9 13 1017.5 1017.5 0.0
11/03:00am 20.6 19.8 17.2 81 2.1 S 17 22 9 12 1017.6 1017.6 0.0
11/02:30am 20.6 19.3 16.8 79 2.3 SSE 19 22 10 12 1017.5 1017.5 0.0
11/02:00am 20.6 19.5 17.2 81 2.1 S 19 24 10 13 1017.9 1017.9 0.0
11/01:30am 20.6 19.9 17.4 82 2.0 S 17 24 9 13 1018.1 1018.1 0.0
11/01:00am 20.8 19.8 18.0 84 1.7 S 20 26 11 14 1018.0 1018.0 0.0
11/12:30am 20.7 19.9 17.9 84 1.7 SSE 19 22 10 12 1018.1 1018.1 0.0
11/12:00am 20.9 20.0 18.3 85 1.6 S 20 26 11 14 1018.3 1018.3 0.0
 
Date/Time
EDT
Temp
°C
App
Temp
°C
Dew
Point
°C
Rel
Hum
%
Delta-T
°C
Wind Press
QNH
hPa
Press
MSL
hPa
Rain since
9am
mm
Dir  Spd
km/h
Gust
km/h
Spd
kts
Gust
kts
10/11:30pm 20.9 19.3 18.3 85 1.6 SSE 24 30 13 16 1018.1 1018.1 0.0
10/11:00pm 20.9 19.2 18.1 84 1.7 S 24 32 13 17 1018.6 1018.6 0.0
10/10:30pm 21.1 18.8 18.5 85 1.6 S 28 39 15 21 1018.6 1018.6 0.0
10/10:00pm 21.0 18.8 18.8 87 1.4 S 28 35 15 19 1018.3 1018.3 0.0

Other Formats:

Comma delimited format used in spreadsheet applications
http://www.bom.gov.au/fwo/IDN60801/IDN60801.94767.axf

JavaScript Object Notation format (JSON) in row-major order
http://www.bom.gov.au/fwo/IDN60801/IDN60801.94767.json